sensor_id;sensor_type;location;lat;lon;timestamp;P1;durP1;ratioP1;P2;durP2;ratioP2
6424;SDS011;12193;42.642;23.384;2023-03-01T00:02:20;6.03;;;3.80;;
6424;SDS011;12193;42.642;23.384;2023-03-01T00:04:49;8.03;;;3.77;;
6424;SDS011;12193;42.642;23.384;2023-03-01T00:07:19;4.50;;;2.43;;
6424;SDS011;12193;42.642;23.384;2023-03-01T00:09:48;6.10;;;3.30;;
6424;SDS011;12193;42.642;23.384;2023-03-01T00:12:17;3.87;;;2.50;;
6424;SDS011;12193;42.642;23.384;2023-03-01T00:14:46;6.47;;;3.80;;
6424;SDS011;12193;42.642;23.384;2023-03-01T00:17:18;4.77;;;2.77;;
6424;SDS011;12193;42.642;23.384;2023-03-01T00:19:48;4.20;;;2.67;;
6424;SDS011;12193;42.642;23.384;2023-03-01T00:22:17;5.97;;;3.57;;
6424;SDS011;12193;42.642;23.384;2023-03-01T00:24:46;4.07;;;2.30;;
6424;SDS011;12193;42.642;23.384;2023-03-01T00:27:16;5.70;;;2.60;;
6424;SDS011;12193;42.642;23.384;2023-03-01T00:29:45;2.87;;;1.90;;
6424;SDS011;12193;42.642;23.384;2023-03-01T00:32:15;3.63;;;2.53;;
6424;SDS011;12193;42.642;23.384;2023-03-01T00:34:46;3.73;;;2.57;;
6424;SDS011;12193;42.642;23.384;2023-03-01T00:37:21;2.90;;;1.63;;
6424;SDS011;12193;42.642;23.384;2023-03-01T00:39:50;5.37;;;3.23;;
6424;SDS011;12193;42.642;23.384;2023-03-01T00:42:20;4.63;;;2.63;;
6424;SDS011;12193;42.642;23.384;2023-03-01T00:44:49;3.33;;;2.30;;
6424;SDS011;12193;42.642;23.384;2023-03-01T00:47:18;5.87;;;3.63;;
6424;SDS011;12193;42.642;23.384;2023-03-01T00:49:50;3.53;;;1.60;;
6424;SDS011;12193;42.642;23.384;2023-03-01T00:52:20;3.73;;;2.40;;
6424;SDS011;12193;42.642;23.384;2023-03-01T00:54:51;5.73;;;2.20;;
6424;SDS011;12193;42.642;23.384;2023-03-01T00:57:21;3.90;;;2.53;;
6424;SDS011;12193;42.642;23.384;2023-03-01T00:59:51;6.03;;;3.50;;
6424;SDS011;12193;42.642;23.384;2023-03-01T01:02:20;9.43;;;3.60;;
6424;SDS011;12193;42.642;23.384;2023-03-01T01:04:52;4.33;;;2.13;;
6424;SDS011;12193;42.642;23.384;2023-03-01T04:08:46;4.00;;;2.60;;
6424;SDS011;12193;42.642;23.384;2023-03-01T04:11:16;2.93;;;2.17;;
6424;SDS011;12193;42.642;23.384;2023-03-01T04:13:56;3.67;;;1.83;;
6424;SDS011;12193;42.642;23.384;2023-03-01T04:16:27;3.37;;;2.40;;
6424;SDS011;12193;42.642;23.384;2023-03-01T04:18:56;6.43;;;2.37;;
6424;SDS011;12193;42.642;23.384;2023-03-01T04:21:26;3.73;;;2.00;;
6424;SDS011;12193;42.642;23.384;2023-03-01T04:23:58;3.23;;;2.30;;
6424;SDS011;12193;42.642;23.384;2023-03-01T04:26:29;3.67;;;2.13;;
6424;SDS011;12193;42.642;23.384;2023-03-01T04:28:59;4.60;;;3.17;;
6424;SDS011;12193;42.642;23.384;2023-03-01T04:31:29;5.87;;;2.90;;
6424;SDS011;12193;42.642;23.384;2023-03-01T04:33:58;5.13;;;2.50;;
6424;SDS011;12193;42.642;23.384;2023-03-01T04:36:28;3.23;;;2.40;;
6424;SDS011;12193;42.642;23.384;2023-03-01T04:39:01;5.60;;;3.17;;
6424;SDS011;12193;42.642;23.384;2023-03-01T04:41:37;2.77;;;1.90;;
6424;SDS011;12193;42.642;23.384;2023-03-01T04:44:09;4.80;;;3.10;;
6424;SDS011;12193;42.642;23.384;2023-03-01T04:46:39;4.10;;;2.80;;
6424;SDS011;12193;42.642;23.384;2023-03-01T04:49:08;4.60;;;3.10;;
6424;SDS011;12193;42.642;23.384;2023-03-01T04:51:37;4.47;;;2.70;;
6424;SDS011;12193;42.642;23.384;2023-03-01T04:54:09;6.07;;;3.60;;
6424;SDS011;12193;42.642;23.384;2023-03-01T04:56:38;5.63;;;3.40;;
6424;SDS011;12193;42.642;23.384;2023-03-01T04:59:08;4.83;;;3.23;;
6424;SDS011;12193;42.642;23.384;2023-03-01T05:01:38;5.80;;;3.40;;
6424;SDS011;12193;42.642;23.384;2023-03-01T05:04:10;4.40;;;2.93;;
6424;SDS011;12193;42.642;23.384;2023-03-01T05:06:39;4.50;;;2.80;;
6424;SDS011;12193;42.642;23.384;2023-03-01T05:09:11;4.33;;;2.90;;
6424;SDS011;12193;42.642;23.384;2023-03-01T05:11:41;4.63;;;2.97;;
6424;SDS011;12193;42.642;23.384;2023-03-01T05:14:10;3.80;;;2.70;;
6424;SDS011;12193;42.642;23.384;2023-03-01T05:16:40;3.60;;;2.50;;
6424;SDS011;12193;42.642;23.384;2023-03-01T05:19:09;3.53;;;2.77;;
6424;SDS011;12193;42.642;23.384;2023-03-01T05:21:41;3.97;;;2.80;;
6424;SDS011;12193;42.642;23.384;2023-03-01T05:24:26;4.07;;;2.80;;
6424;SDS011;12193;42.642;23.384;2023-03-01T05:26:55;6.97;;;3.03;;
6424;SDS011;12193;42.642;23.384;2023-03-01T05:29:26;3.93;;;2.70;;
6424;SDS011;12193;42.642;23.384;2023-03-01T05:31:57;4.73;;;2.90;;
6424;SDS011;12193;42.642;23.384;2023-03-01T05:34:29;4.30;;;3.03;;
6424;SDS011;12193;42.642;23.384;2023-03-01T05:37:00;5.77;;;2.90;;
6424;SDS011;12193;42.642;23.384;2023-03-01T05:39:33;5.37;;;3.30;;
6424;SDS011;12193;42.642;23.384;2023-03-01T05:42:03;6.00;;;3.40;;
6424;SDS011;12193;42.642;23.384;2023-03-01T05:44:34;6.03;;;3.17;;
6424;SDS011;12193;42.642;23.384;2023-03-01T05:47:04;6.80;;;3.13;;
6424;SDS011;12193;42.642;23.384;2023-03-01T05:49:33;5.03;;;2.90;;
6424;SDS011;12193;42.642;23.384;2023-03-01T05:52:03;3.77;;;2.23;;
6424;SDS011;12193;42.642;23.384;2023-03-01T05:54:35;2.83;;;2.13;;
6424;SDS011;12193;42.642;23.384;2023-03-01T05:57:05;4.00;;;2.30;;
6424;SDS011;12193;42.642;23.384;2023-03-01T05:59:34;3.83;;;2.70;;
6424;SDS011;12193;42.642;23.384;2023-03-01T06:02:04;4.13;;;2.80;;
6424;SDS011;12193;42.642;23.384;2023-03-01T06:04:33;3.80;;;2.33;;
6424;SDS011;12193;42.642;23.384;2023-03-01T06:07:02;2.23;;;1.63;;
6424;SDS011;12193;42.642;23.384;2023-03-01T06:09:34;4.40;;;2.80;;
6424;SDS011;12193;42.642;23.384;2023-03-01T06:12:04;4.43;;;2.90;;
6424;SDS011;12193;42.642;23.384;2023-03-01T06:14:34;4.60;;;2.50;;
6424;SDS011;12193;42.642;23.384;2023-03-01T06:17:03;4.23;;;2.77;;
6424;SDS011;12193;42.642;23.384;2023-03-01T06:19:33;4.53;;;3.07;;
6424;SDS011;12193;42.642;23.384;2023-03-01T06:22:02;4.83;;;2.70;;
6424;SDS011;12193;42.642;23.384;2023-03-01T06:24:32;3.37;;;2.60;;
6424;SDS011;12193;42.642;23.384;2023-03-01T06:27:03;5.80;;;3.80;;
6424;SDS011;12193;42.642;23.384;2023-03-01T06:29:33;5.40;;;3.27;;
6424;SDS011;12193;42.642;23.384;2023-03-01T06:32:02;4.50;;;2.40;;
6424;SDS011;12193;42.642;23.384;2023-03-01T06:34:33;4.90;;;3.30;;
6424;SDS011;12193;42.642;23.384;2023-03-01T06:37:03;6.70;;;3.20;;
6424;SDS011;12193;42.642;23.384;2023-03-01T06:39:35;3.40;;;2.07;;
6424;SDS011;12193;42.642;23.384;2023-03-01T06:42:05;2.67;;;1.97;;
6424;SDS011;12193;42.642;23.384;2023-03-01T06:44:35;1.97;;;1.60;;
6424;SDS011;12193;42.642;23.384;2023-03-01T06:47:05;4.03;;;2.27;;
6424;SDS011;12193;42.642;23.384;2023-03-01T06:49:34;4.47;;;2.57;;
6424;SDS011;12193;42.642;23.384;2023-03-01T06:52:04;8.33;;;2.57;;
6424;SDS011;12193;42.642;23.384;2023-03-01T06:54:36;4.87;;;2.90;;
6424;SDS011;12193;42.642;23.384;2023-03-01T06:57:05;6.83;;;2.83;;
6424;SDS011;12193;42.642;23.384;2023-03-01T06:59:34;2.63;;;1.33;;
6424;SDS011;12193;42.642;23.384;2023-03-01T07:02:04;4.30;;;2.43;;
6424;SDS011;12193;42.642;23.384;2023-03-01T07:04:33;5.07;;;2.90;;
6424;SDS011;12193;42.642;23.384;2023-03-01T07:07:02;3.23;;;2.20;;
6424;SDS011;12193;42.642;23.384;2023-03-01T07:09:32;3.70;;;2.37;;
6424;SDS011;12193;42.642;23.384;2023-03-01T07:12:04;3.87;;;1.83;;
6424;SDS011;12193;42.642;23.384;2023-03-01T07:14:33;4.23;;;2.60;;
6424;SDS011;12193;42.642;23.384;2023-03-01T07:17:03;3.33;;;2.33;;
6424;SDS011;12193;42.642;23.384;2023-03-01T07:19:32;3.33;;;2.20;;
6424;SDS011;12193;42.642;23.384;2023-03-01T07:22:02;4.47;;;2.50;;
6424;SDS011;12193;42.642;23.384;2023-03-01T07:24:33;4.23;;;2.53;;
6424;SDS011;12193;42.642;23.384;2023-03-01T07:27:06;5.40;;;2.87;;
6424;SDS011;12193;42.642;23.384;2023-03-01T07:29:35;5.27;;;3.40;;
6424;SDS011;12193;42.642;23.384;2023-03-01T07:32:05;4.20;;;2.70;;
6424;SDS011;12193;42.642;23.384;2023-03-01T07:34:35;3.73;;;2.73;;
6424;SDS011;12193;42.642;23.384;2023-03-01T07:37:04;8.97;;;3.20;;
6424;SDS011;12193;42.642;23.384;2023-03-01T07:39:33;3.70;;;2.70;;
6424;SDS011;12193;42.642;23.384;2023-03-01T07:42:06;5.13;;;3.20;;
6424;SDS011;12193;42.642;23.384;2023-03-01T07:44:35;4.80;;;3.33;;
6424;SDS011;12193;42.642;23.384;2023-03-01T07:47:05;10.97;;;2.90;;
6424;SDS011;12193;42.642;23.384;2023-03-01T07:49:34;4.90;;;3.13;;
6424;SDS011;12193;42.642;23.384;2023-03-01T07:52:04;5.17;;;2.57;;
6424;SDS011;12193;42.642;23.384;2023-03-01T07:54:33;4.43;;;2.50;;
6424;SDS011;12193;42.642;23.384;2023-03-01T07:57:05;5.47;;;2.63;;
6424;SDS011;12193;42.642;23.384;2023-03-01T07:59:35;3.87;;;2.73;;
6424;SDS011;12193;42.642;23.384;2023-03-01T08:02:04;3.93;;;2.93;;
6424;SDS011;12193;42.642;23.384;2023-03-01T08:04:34;4.50;;;3.10;;
6424;SDS011;12193;42.642;23.384;2023-03-01T08:07:04;5.87;;;3.10;;
6424;SDS011;12193;42.642;23.384;2023-03-01T08:09:34;3.67;;;2.43;;
6424;SDS011;12193;42.642;23.384;2023-03-01T08:12:08;5.43;;;3.00;;
6424;SDS011;12193;42.642;23.384;2023-03-01T08:14:37;2.93;;;1.90;;
6424;SDS011;12193;42.642;23.384;2023-03-01T08:17:06;3.13;;;2.43;;
6424;SDS011;12193;42.642;23.384;2023-03-01T08:19:36;3.13;;;2.40;;
6424;SDS011;12193;42.642;23.384;2023-03-01T08:22:05;3.70;;;2.47;;
6424;SDS011;12193;42.642;23.384;2023-03-01T08:24:34;4.60;;;3.07;;
6424;SDS011;12193;42.642;23.384;2023-03-01T08:27:04;6.37;;;2.17;;
6424;SDS011;12193;42.642;23.384;2023-03-01T08:29:38;3.97;;;3.07;;
6424;SDS011;12193;42.642;23.384;2023-03-01T08:32:07;3.63;;;2.53;;
6424;SDS011;12193;42.642;23.384;2023-03-01T08:34:36;4.10;;;2.67;;
6424;SDS011;12193;42.642;23.384;2023-03-01T08:37:06;3.73;;;2.63;;
6424;SDS011;12193;42.642;23.384;2023-03-01T08:39:35;4.37;;;2.83;;
6424;SDS011;12193;42.642;23.384;2023-03-01T08:42:07;3.73;;;2.60;;
6424;SDS011;12193;42.642;23.384;2023-03-01T08:44:36;4.67;;;2.70;;
6424;SDS011;12193;42.642;23.384;2023-03-01T08:47:05;2.80;;;2.33;;
6424;SDS011;12193;42.642;23.384;2023-03-01T08:49:34;6.70;;;3.60;;
6424;SDS011;12193;42.642;23.384;2023-03-01T08:52:04;5.20;;;3.13;;
6424;SDS011;12193;42.642;23.384;2023-03-01T08:54:33;5.07;;;3.37;;
6424;SDS011;12193;42.642;23.384;2023-03-01T08:57:02;4.53;;;3.13;;
6424;SDS011;12193;42.642;23.384;2023-03-01T08:59:34;3.17;;;2.13;;
6424;SDS011;12193;42.642;23.384;2023-03-01T09:02:04;4.70;;;2.37;;
6424;SDS011;12193;42.642;23.384;2023-03-01T09:04:33;3.57;;;2.50;;
6424;SDS011;12193;42.642;23.384;2023-03-01T09:07:02;3.10;;;2.33;;
6424;SDS011;12193;42.642;23.384;2023-03-01T09:09:32;2.90;;;1.67;;
6424;SDS011;12193;42.642;23.384;2023-03-01T09:12:01;2.77;;;2.03;;
6424;SDS011;12193;42.642;23.384;2023-03-01T09:14:31;3.07;;;2.10;;
6424;SDS011;12193;42.642;23.384;2023-03-01T09:17:04;5.03;;;2.43;;
6424;SDS011;12193;42.642;23.384;2023-03-01T09:19:33;2.67;;;1.63;;
6424;SDS011;12193;42.642;23.384;2023-03-01T09:22:02;2.20;;;1.50;;
6424;SDS011;12193;42.642;23.384;2023-03-01T09:24:32;3.23;;;2.10;;
6424;SDS011;12193;42.642;23.384;2023-03-01T09:27:02;7.50;;;2.50;;
6424;SDS011;12193;42.642;23.384;2023-03-01T09:29:37;4.37;;;2.00;;
6424;SDS011;12193;42.642;23.384;2023-03-01T09:32:07;2.80;;;1.87;;
6424;SDS011;12193;42.642;23.384;2023-03-01T09:34:36;3.33;;;1.77;;
6424;SDS011;12193;42.642;23.384;2023-03-01T09:37:18;3.60;;;1.73;;
6424;SDS011;12193;42.642;23.384;2023-03-01T09:39:47;1.70;;;1.17;;
6424;SDS011;12193;42.642;23.384;2023-03-01T09:42:17;2.10;;;1.63;;
6424;SDS011;12193;42.642;23.384;2023-03-01T09:44:49;2.27;;;1.70;;
6424;SDS011;12193;42.642;23.384;2023-03-01T09:47:24;2.30;;;1.70;;
6424;SDS011;12193;42.642;23.384;2023-03-01T09:49:58;1.23;;;1.10;;
6424;SDS011;12193;42.642;23.384;2023-03-01T09:52:34;1.73;;;1.33;;
6424;SDS011;12193;42.642;23.384;2023-03-01T09:55:09;2.70;;;1.50;;
6424;SDS011;12193;42.642;23.384;2023-03-01T09:57:43;3.73;;;2.30;;
6424;SDS011;12193;42.642;23.384;2023-03-01T10:00:22;2.63;;;1.80;;
6424;SDS011;12193;42.642;23.384;2023-03-01T10:03:12;2.10;;;1.70;;
6424;SDS011;12193;42.642;23.384;2023-03-01T10:08:36;2.77;;;2.17;;
6424;SDS011;12193;42.642;23.384;2023-03-01T10:11:20;5.87;;;2.50;;
6424;SDS011;12193;42.642;23.384;2023-03-01T10:13:54;1.17;;;1.00;;
6424;SDS011;12193;42.642;23.384;2023-03-01T10:16:32;3.43;;;1.50;;
6424;SDS011;12193;42.642;23.384;2023-03-01T10:19:09;3.63;;;2.40;;
6424;SDS011;12193;42.642;23.384;2023-03-01T10:21:43;1.43;;;1.17;;
6424;SDS011;12193;42.642;23.384;2023-03-01T10:24:15;2.87;;;1.67;;
6424;SDS011;12193;42.642;23.384;2023-03-01T10:26:48;2.77;;;2.00;;
6424;SDS011;12193;42.642;23.384;2023-03-01T10:29:25;7.80;;;1.97;;
6424;SDS011;12193;42.642;23.384;2023-03-01T10:32:03;3.20;;;2.33;;
6424;SDS011;12193;42.642;23.384;2023-03-01T10:34:34;2.63;;;1.63;;
6424;SDS011;12193;42.642;23.384;2023-03-01T10:37:13;1.80;;;1.33;;
6424;SDS011;12193;42.642;23.384;2023-03-01T10:39:56;5.43;;;2.47;;
6424;SDS011;12193;42.642;23.384;2023-03-01T10:42:32;4.37;;;1.73;;
6424;SDS011;12193;42.642;23.384;2023-03-01T10:45:14;2.10;;;1.47;;
6424;SDS011;12193;42.642;23.384;2023-03-01T10:47:49;1.50;;;1.37;;
6424;SDS011;12193;42.642;23.384;2023-03-01T10:50:33;3.07;;;1.90;;
6424;SDS011;12193;42.642;23.384;2023-03-01T10:53:03;3.70;;;2.13;;
6424;SDS011;12193;42.642;23.384;2023-03-01T10:55:34;2.43;;;2.03;;
6424;SDS011;12193;42.642;23.384;2023-03-01T10:58:11;1.80;;;1.70;;
6424;SDS011;12193;42.642;23.384;2023-03-01T11:00:48;3.90;;;2.40;;
6424;SDS011;12193;42.642;23.384;2023-03-01T11:03:22;2.77;;;2.00;;
6424;SDS011;12193;42.642;23.384;2023-03-01T11:05:57;4.50;;;2.60;;
6424;SDS011;12193;42.642;23.384;2023-03-01T11:08:35;3.23;;;1.73;;
6424;SDS011;12193;42.642;23.384;2023-03-01T11:11:20;4.33;;;2.40;;
6424;SDS011;12193;42.642;23.384;2023-03-01T11:13:53;2.57;;;2.13;;
6424;SDS011;12193;42.642;23.384;2023-03-01T11:16:34;3.53;;;2.37;;
6424;SDS011;12193;42.642;23.384;2023-03-01T11:19:18;1.83;;;1.33;;
6424;SDS011;12193;42.642;23.384;2023-03-01T11:21:52;5.47;;;2.07;;
6424;SDS011;12193;42.642;23.384;2023-03-01T11:24:27;3.47;;;2.47;;
6424;SDS011;12193;42.642;23.384;2023-03-01T11:27:01;3.10;;;1.90;;
6424;SDS011;12193;42.642;23.384;2023-03-01T11:29:35;5.67;;;2.77;;
6424;SDS011;12193;42.642;23.384;2023-03-01T11:32:08;3.23;;;2.60;;
6424;SDS011;12193;42.642;23.384;2023-03-01T11:34:45;6.63;;;2.97;;
6424;SDS011;12193;42.642;23.384;2023-03-01T11:37:26;3.83;;;2.57;;
6424;SDS011;12193;42.642;23.384;2023-03-01T11:40:10;4.10;;;2.73;;
6424;SDS011;12193;42.642;23.384;2023-03-01T11:42:48;6.37;;;3.60;;
6424;SDS011;12193;42.642;23.384;2023-03-01T11:45:25;4.97;;;3.70;;
6424;SDS011;12193;42.642;23.384;2023-03-01T11:48:06;4.93;;;3.33;;
6424;SDS011;12193;42.642;23.384;2023-03-01T11:50:48;4.30;;;3.33;;
6424;SDS011;12193;42.642;23.384;2023-03-01T11:53:33;5.47;;;3.70;;
6424;SDS011;12193;42.642;23.384;2023-03-01T11:56:20;7.23;;;3.60;;
6424;SDS011;12193;42.642;23.384;2023-03-01T11:59:02;3.70;;;2.83;;
6424;SDS011;12193;42.642;23.384;2023-03-01T12:01:53;4.93;;;3.50;;
6424;SDS011;12193;42.642;23.384;2023-03-01T12:07:44;3.57;;;2.87;;
6424;SDS011;12193;42.642;23.384;2023-03-01T12:10:20;5.30;;;2.70;;
6424;SDS011;12193;42.642;23.384;2023-03-01T12:12:58;4.60;;;3.60;;
6424;SDS011;12193;42.642;23.384;2023-03-01T12:15:51;3.40;;;2.60;;
6424;SDS011;12193;42.642;23.384;2023-03-01T12:21:30;5.50;;;3.07;;
6424;SDS011;12193;42.642;23.384;2023-03-01T12:27:09;3.20;;;2.03;;
6424;SDS011;12193;42.642;23.384;2023-03-01T12:29:49;6.47;;;3.00;;
6424;SDS011;12193;42.642;23.384;2023-03-01T12:32:31;4.67;;;3.40;;
6424;SDS011;12193;42.642;23.384;2023-03-01T12:35:24;4.33;;;3.17;;
6424;SDS011;12193;42.642;23.384;2023-03-01T12:38:07;4.00;;;2.70;;
6424;SDS011;12193;42.642;23.384;2023-03-01T12:40:51;4.67;;;3.00;;
6424;SDS011;12193;42.642;23.384;2023-03-01T12:43:47;4.53;;;3.17;;
6424;SDS011;12193;42.642;23.384;2023-03-01T12:46:28;4.37;;;3.13;;
6424;SDS011;12193;42.642;23.384;2023-03-01T12:49:08;5.37;;;3.70;;
6424;SDS011;12193;42.642;23.384;2023-03-01T12:51:43;5.67;;;3.00;;
6424;SDS011;12193;42.642;23.384;2023-03-01T12:54:26;5.00;;;2.90;;
6424;SDS011;12193;42.642;23.384;2023-03-01T12:57:02;4.10;;;2.60;;
6424;SDS011;12193;42.642;23.384;2023-03-01T12:59:38;4.47;;;3.20;;
6424;SDS011;12193;42.642;23.384;2023-03-01T13:02:13;4.37;;;2.47;;
6424;SDS011;12193;42.642;23.384;2023-03-01T13:04:53;3.80;;;2.53;;
6424;SDS011;12193;42.642;23.384;2023-03-01T13:07:33;7.37;;;3.50;;
6424;SDS011;12193;42.642;23.384;2023-03-01T13:10:10;5.20;;;3.20;;
6424;SDS011;12193;42.642;23.384;2023-03-01T13:13:01;4.80;;;3.17;;
6424;SDS011;12193;42.642;23.384;2023-03-01T13:15:40;7.17;;;3.83;;
6424;SDS011;12193;42.642;23.384;2023-03-01T13:20:58;6.50;;;4.07;;
6424;SDS011;12193;42.642;23.384;2023-03-01T13:23:31;7.37;;;4.33;;
6424;SDS011;12193;42.642;23.384;2023-03-01T13:26:04;6.20;;;3.70;;
6424;SDS011;12193;42.642;23.384;2023-03-01T13:28:48;5.27;;;2.87;;
6424;SDS011;12193;42.642;23.384;2023-03-01T13:34:47;6.17;;;3.27;;
6424;SDS011;12193;42.642;23.384;2023-03-01T13:37:22;4.70;;;3.30;;
6424;SDS011;12193;42.642;23.384;2023-03-01T13:39:55;7.93;;;3.10;;
6424;SDS011;12193;42.642;23.384;2023-03-01T13:42:40;4.23;;;3.10;;
6424;SDS011;12193;42.642;23.384;2023-03-01T13:45:22;4.77;;;3.20;;
6424;SDS011;12193;42.642;23.384;2023-03-01T13:48:02;4.53;;;3.27;;
6424;SDS011;12193;42.642;23.384;2023-03-01T13:50:38;5.57;;;3.40;;
6424;SDS011;12193;42.642;23.384;2023-03-01T13:53:17;4.73;;;2.90;;
6424;SDS011;12193;42.642;23.384;2023-03-01T13:55:48;5.10;;;2.90;;
6424;SDS011;12193;42.642;23.384;2023-03-01T13:58:22;6.13;;;3.20;;
6424;SDS011;12193;42.642;23.384;2023-03-01T14:01:00;4.73;;;3.37;;
6424;SDS011;12193;42.642;23.384;2023-03-01T14:03:33;7.07;;;3.97;;
6424;SDS011;12193;42.642;23.384;2023-03-01T14:06:11;4.97;;;3.20;;
6424;SDS011;12193;42.642;23.384;2023-03-01T14:08:44;4.80;;;2.93;;
6424;SDS011;12193;42.642;23.384;2023-03-01T14:11:23;3.97;;;2.70;;
6424;SDS011;12193;42.642;23.384;2023-03-01T14:14:17;4.03;;;2.40;;
6424;SDS011;12193;42.642;23.384;2023-03-01T14:17:29;4.40;;;2.53;;
6424;SDS011;12193;42.642;23.384;2023-03-01T14:20:12;4.10;;;2.63;;
6424;SDS011;12193;42.642;23.384;2023-03-01T14:22:47;5.77;;;3.03;;
6424;SDS011;12193;42.642;23.384;2023-03-01T14:25:26;3.73;;;2.57;;
6424;SDS011;12193;42.642;23.384;2023-03-01T14:28:00;5.90;;;3.43;;
6424;SDS011;12193;42.642;23.384;2023-03-01T14:30:34;4.23;;;2.83;;
6424;SDS011;12193;42.642;23.384;2023-03-01T14:33:17;3.70;;;2.57;;
6424;SDS011;12193;42.642;23.384;2023-03-01T14:35:53;4.60;;;2.70;;
6424;SDS011;12193;42.642;23.384;2023-03-01T14:38:29;4.87;;;2.90;;
6424;SDS011;12193;42.642;23.384;2023-03-01T14:41:03;6.57;;;2.67;;
6424;SDS011;12193;42.642;23.384;2023-03-01T14:43:36;3.97;;;2.57;;
6424;SDS011;12193;42.642;23.384;2023-03-01T14:46:16;4.90;;;2.47;;
6424;SDS011;12193;42.642;23.384;2023-03-01T14:48:51;4.27;;;2.43;;
6424;SDS011;12193;42.642;23.384;2023-03-01T14:51:23;4.00;;;2.20;;
6424;SDS011;12193;42.642;23.384;2023-03-01T14:53:52;4.07;;;2.30;;
6424;SDS011;12193;42.642;23.384;2023-03-01T14:56:22;6.03;;;3.33;;
6424;SDS011;12193;42.642;23.384;2023-03-01T14:58:52;16.77;;;3.90;;
6424;SDS011;12193;42.642;23.384;2023-03-01T15:01:28;6.13;;;2.80;;
6424;SDS011;12193;42.642;23.384;2023-03-01T15:04:00;6.13;;;3.63;;
6424;SDS011;12193;42.642;23.384;2023-03-01T15:06:31;4.30;;;2.57;;
6424;SDS011;12193;42.642;23.384;2023-03-01T15:09:00;5.23;;;3.23;;
6424;SDS011;12193;42.642;23.384;2023-03-01T15:11:30;8.20;;;3.40;;
6424;SDS011;12193;42.642;23.384;2023-03-01T15:14:03;8.50;;;3.60;;
6424;SDS011;12193;42.642;23.384;2023-03-01T15:17:30;7.40;;;3.60;;
6424;SDS011;12193;42.642;23.384;2023-03-01T15:20:04;5.77;;;3.47;;
6424;SDS011;12193;42.642;23.384;2023-03-01T15:22:43;5.90;;;3.90;;
6424;SDS011;12193;42.642;23.384;2023-03-01T15:25:14;6.70;;;3.50;;
6424;SDS011;12193;42.642;23.384;2023-03-01T15:27:45;5.33;;;2.37;;
6424;SDS011;12193;42.642;23.384;2023-03-01T15:30:17;7.23;;;3.30;;
6424;SDS011;12193;42.642;23.384;2023-03-01T15:32:54;4.53;;;3.10;;
6424;SDS011;12193;42.642;23.384;2023-03-01T15:35:49;5.27;;;3.73;;
6424;SDS011;12193;42.642;23.384;2023-03-01T15:38:24;6.20;;;3.67;;
6424;SDS011;12193;42.642;23.384;2023-03-01T15:40:55;8.50;;;3.87;;
6424;SDS011;12193;42.642;23.384;2023-03-01T15:43:38;7.57;;;3.83;;
6424;SDS011;12193;42.642;23.384;2023-03-01T15:46:16;7.13;;;3.93;;
6424;SDS011;12193;42.642;23.384;2023-03-01T15:48:50;7.83;;;3.93;;
6424;SDS011;12193;42.642;23.384;2023-03-01T15:51:27;4.93;;;3.43;;
6424;SDS011;12193;42.642;23.384;2023-03-01T15:53:59;6.83;;;3.10;;
6424;SDS011;12193;42.642;23.384;2023-03-01T15:56:31;5.53;;;3.40;;
6424;SDS011;12193;42.642;23.384;2023-03-01T15:59:01;6.23;;;3.03;;
6424;SDS011;12193;42.642;23.384;2023-03-01T16:01:32;7.23;;;3.57;;
6424;SDS011;12193;42.642;23.384;2023-03-01T16:04:03;4.63;;;2.90;;
6424;SDS011;12193;42.642;23.384;2023-03-01T16:06:35;5.47;;;2.67;;
6424;SDS011;12193;42.642;23.384;2023-03-01T16:09:05;6.37;;;4.00;;
6424;SDS011;12193;42.642;23.384;2023-03-01T16:11:35;7.90;;;4.10;;
6424;SDS011;12193;42.642;23.384;2023-03-01T16:14:07;8.03;;;3.67;;
6424;SDS011;12193;42.642;23.384;2023-03-01T16:16:37;5.70;;;3.07;;
6424;SDS011;12193;42.642;23.384;2023-03-01T16:19:07;5.60;;;3.23;;
6424;SDS011;12193;42.642;23.384;2023-03-01T16:21:39;4.23;;;2.77;;
6424;SDS011;12193;42.642;23.384;2023-03-01T16:24:09;6.30;;;2.80;;
6424;SDS011;12193;42.642;23.384;2023-03-01T16:26:39;4.97;;;2.70;;
6424;SDS011;12193;42.642;23.384;2023-03-01T16:29:08;5.13;;;3.17;;
6424;SDS011;12193;42.642;23.384;2023-03-01T16:31:37;3.90;;;2.03;;
6424;SDS011;12193;42.642;23.384;2023-03-01T16:34:06;4.17;;;2.40;;
6424;SDS011;12193;42.642;23.384;2023-03-01T16:36:39;5.03;;;2.90;;
6424;SDS011;12193;42.642;23.384;2023-03-01T16:39:11;4.73;;;2.80;;
6424;SDS011;12193;42.642;23.384;2023-03-01T16:41:40;4.87;;;2.80;;
6424;SDS011;12193;42.642;23.384;2023-03-01T16:44:09;4.70;;;2.83;;
6424;SDS011;12193;42.642;23.384;2023-03-01T16:46:39;4.67;;;2.90;;
6424;SDS011;12193;42.642;23.384;2023-03-01T16:49:11;4.37;;;2.67;;
6424;SDS011;12193;42.642;23.384;2023-03-01T16:51:42;5.83;;;3.23;;
6424;SDS011;12193;42.642;23.384;2023-03-01T16:54:12;4.13;;;2.60;;
6424;SDS011;12193;42.642;23.384;2023-03-01T16:56:41;4.23;;;2.50;;
6424;SDS011;12193;42.642;23.384;2023-03-01T16:59:10;5.77;;;2.77;;
6424;SDS011;12193;42.642;23.384;2023-03-01T17:01:40;4.00;;;2.50;;
6424;SDS011;12193;42.642;23.384;2023-03-01T17:04:10;3.37;;;2.23;;
6424;SDS011;12193;42.642;23.384;2023-03-01T17:06:43;3.27;;;2.40;;
6424;SDS011;12193;42.642;23.384;2023-03-01T17:09:14;3.93;;;2.13;;
6424;SDS011;12193;42.642;23.384;2023-03-01T17:11:47;6.60;;;3.40;;
6424;SDS011;12193;42.642;23.384;2023-03-01T17:14:17;6.23;;;3.47;;
6424;SDS011;12193;42.642;23.384;2023-03-01T17:16:46;5.67;;;3.13;;
6424;SDS011;12193;42.642;23.384;2023-03-01T17:19:16;6.80;;;3.63;;
6424;SDS011;12193;42.642;23.384;2023-03-01T17:21:48;4.00;;;2.57;;
6424;SDS011;12193;42.642;23.384;2023-03-01T17:24:17;6.80;;;3.50;;
6424;SDS011;12193;42.642;23.384;2023-03-01T17:26:47;4.53;;;2.77;;
6424;SDS011;12193;42.642;23.384;2023-03-01T17:29:16;5.37;;;3.07;;
6424;SDS011;12193;42.642;23.384;2023-03-01T17:31:46;6.07;;;3.43;;
6424;SDS011;12193;42.642;23.384;2023-03-01T17:34:15;6.83;;;3.40;;
6424;SDS011;12193;42.642;23.384;2023-03-01T17:36:48;5.83;;;3.60;;
6424;SDS011;12193;42.642;23.384;2023-03-01T17:39:19;5.43;;;3.70;;
6424;SDS011;12193;42.642;23.384;2023-03-01T17:41:53;8.77;;;4.20;;
6424;SDS011;12193;42.642;23.384;2023-03-01T17:44:22;8.87;;;4.60;;
6424;SDS011;12193;42.642;23.384;2023-03-01T17:46:52;8.40;;;4.70;;
6424;SDS011;12193;42.642;23.384;2023-03-01T17:49:21;8.67;;;4.33;;
6424;SDS011;12193;42.642;23.384;2023-03-01T17:51:53;6.33;;;3.67;;
6424;SDS011;12193;42.642;23.384;2023-03-01T17:54:23;6.57;;;3.97;;
6424;SDS011;12193;42.642;23.384;2023-03-01T17:56:52;8.87;;;4.70;;
6424;SDS011;12193;42.642;23.384;2023-03-01T17:59:23;6.57;;;3.67;;
6424;SDS011;12193;42.642;23.384;2023-03-01T18:01:56;10.83;;;6.17;;
6424;SDS011;12193;42.642;23.384;2023-03-01T18:04:26;6.83;;;3.73;;
6424;SDS011;12193;42.642;23.384;2023-03-01T18:06:59;11.00;;;3.20;;
6424;SDS011;12193;42.642;23.384;2023-03-01T18:09:29;8.57;;;4.77;;
6424;SDS011;12193;42.642;23.384;2023-03-01T18:11:58;8.80;;;3.80;;
6424;SDS011;12193;42.642;23.384;2023-03-01T18:14:27;8.70;;;4.57;;
6424;SDS011;12193;42.642;23.384;2023-03-01T18:16:58;8.60;;;4.97;;
6424;SDS011;12193;42.642;23.384;2023-03-01T18:19:31;7.77;;;4.33;;
6424;SDS011;12193;42.642;23.384;2023-03-01T18:22:03;7.57;;;4.60;;
6424;SDS011;12193;42.642;23.384;2023-03-01T18:24:32;9.97;;;5.03;;
6424;SDS011;12193;42.642;23.384;2023-03-01T18:27:02;9.37;;;5.43;;
6424;SDS011;12193;42.642;23.384;2023-03-01T18:29:31;9.80;;;4.97;;
6424;SDS011;12193;42.642;23.384;2023-03-01T18:32:01;8.73;;;4.80;;
6424;SDS011;12193;42.642;23.384;2023-03-01T18:34:31;7.27;;;4.00;;
6424;SDS011;12193;42.642;23.384;2023-03-01T18:37:03;9.37;;;4.70;;
6424;SDS011;12193;42.642;23.384;2023-03-01T18:39:32;8.10;;;4.20;;
6424;SDS011;12193;42.642;23.384;2023-03-01T18:42:02;8.80;;;4.90;;
6424;SDS011;12193;42.642;23.384;2023-03-01T18:44:31;11.17;;;5.70;;